• Join FlightAware (Why Join?)
  • Login
  • US Flag 
 
07:09AM EST


 

Airport Tracker/Info


-or-


 

Live Flight TrackerFlight Track Log ✈ KAP44 ✈ 16 de May de 2013 ✈ KBOS - KACK

Flight Track Log - Related Links

Times and Time Zones

All times are in EDT time to prevent confusion due to time zone crossing. See the KAP44 flight status page for this flight to view local times or setup timezone preferences in your user account.

Time Position Orientation Groundspeed Altitude Reporting Facility
EDT Latitude Longitude Course Direction KTS MPH feet Rate Location/Type
06:39PM 42.3500 -71.0167 180° South 111 128 600  Level KA90
06:40PM 42.3167 -71.0167 180° South 110 127 1,200 540 Climbing KA90
06:41PM 42.2833 -71.0333 200° South 119 137 1,900 480 Climbing KA90
06:42PM 42.2500 -71.0333 180° South 150 173 2,200 420 Climbing KA90
06:43PM 42.2167 -71.0000 143° Southeast 154 177 2,800 540 Climbing KA90
06:44PM 42.1833 -70.9667 143° Southeast 155 178 3,300 420 Climbing KA90
06:45PM 42.1500 -70.9333 143° Southeast 154 177 3,700 300 Climbing KA90
06:46PM 42.1167 -70.9000 143° Southeast 167 192 4,000 420 Climbing KA90
06:47PM 42.0833 -70.8500 132° Southeast 163 188 4,600 600 Climbing KA90
06:49PM 42.0246 -70.7933 144° Southeast  Level Estimated
06:56PM 41.8023 -70.5798 144° Southeast  Level Estimated
06:57PM 41.7705 -70.5495 145° Southeast  Level Estimated
06:58PM 41.7387 -70.5191 145° Southeast  Level Estimated
06:59PM 41.7069 -70.4888 145° Southeast  Level Estimated
07:00PM 41.6751 -70.4585 145° Southeast  Level Estimated
07:01PM 41.6433 -70.4282 145° Southeast  Level Estimated
07:02PM 41.6115 -70.3980 145° Southeast  Level Estimated
07:03PM 41.5796 -70.3678 145° Southeast  Level Estimated
07:04PM 41.5478 -70.3376 145° Southeast  Level Estimated
07:05PM 41.5159 -70.3075 145° Southeast  Level Estimated
07:06PM 41.4840 -70.2774 145° Southeast  Level Estimated
07:07PM 41.4522 -70.2473 145° Southeast  Level Estimated
07:08PM 41.4203 -70.2173 145° Southeast  Level Estimated
07:09PM 41.3884 -70.1872 145° Southeast  Level Estimated
07:10PM 41.3565 -70.1572 145° Southeast  Level Estimated
07:11PM 41.3246 -70.1273 145° Southeast  Level Estimated
07:12PM 41.2927 -70.0974 145° Southeast  Level Estimated
07:13PM 41.2608 -70.0675 145° Southeast  Level Estimated
07:14PM 41.2531 -70.0603 145° Southeast  Level Estimated
07:15PM 41.2531 -70.0603 72° East  Level Estimated